createdAt,value
2018-12-20T09:39:16.788Z,19.53
2018-12-20T09:44:20.773Z,26.03
2018-12-20T09:49:28.047Z,24.17
2018-12-20T09:54:34.998Z,33.02
2018-12-20T09:59:39.047Z,24.03
2018-12-20T10:10:07.236Z,21.43
2018-12-20T10:15:10.651Z,27.30
2018-12-20T10:20:15.344Z,20.33
2018-12-20T10:25:18.321Z,16.53
2018-12-20T10:30:21.361Z,16.47
2018-12-20T10:35:24.346Z,14.60
2018-12-20T10:40:27.333Z,9.23
2018-12-20T10:45:30.361Z,8.90
2018-12-20T10:50:33.308Z,6.80
2018-12-20T10:55:36.276Z,5.00
2018-12-20T11:00:44.942Z,5.23
2018-12-20T11:05:53.583Z,11.00
2018-12-20T11:11:02.703Z,5.37
2018-12-20T11:16:05.800Z,5.07
2018-12-20T11:21:08.753Z,3.80
2018-12-20T11:26:11.713Z,4.80
2018-12-20T11:31:14.691Z,6.30
2018-12-20T11:36:17.681Z,6.20
2018-12-20T11:41:20.653Z,10.10
2018-12-20T11:51:48.444Z,8.80
2018-12-20T11:56:51.522Z,6.13
2018-12-20T12:01:54.580Z,6.70
2018-12-20T12:06:57.549Z,7.37
2018-12-20T12:12:00.512Z,5.70
2018-12-20T12:22:30.103Z,10.60
2018-12-20T12:27:35.245Z,8.20
2018-12-20T12:32:41.607Z,4.43
2018-12-20T12:37:47.500Z,4.03
2018-12-20T12:42:51.758Z,3.70
2018-12-20T12:48:03.330Z,4.97
2018-12-20T12:58:28.425Z,4.10
2018-12-20T13:03:32.835Z,3.67
2018-12-20T13:08:38.737Z,13.40
2018-12-20T13:13:42.331Z,5.33
2018-12-20T13:24:10.841Z,2.30
2018-12-20T13:29:13.836Z,2.30
2018-12-20T13:34:16.900Z,3.10
2018-12-20T13:39:21.565Z,2.70
2018-12-20T13:44:24.673Z,3.23
2018-12-20T13:49:27.655Z,3.10
2018-12-20T13:54:30.708Z,2.10
2018-12-20T13:59:33.763Z,1.70
2018-12-20T14:04:36.798Z,1.27
2018-12-20T14:09:39.786Z,2.03
2018-12-20T14:14:42.770Z,1.57
2018-12-20T14:19:45.865Z,3.83
2018-12-20T14:30:13.572Z,2.63
2018-12-20T14:40:35.988Z,1.67
2018-12-20T14:51:07.690Z,6.03
2018-12-20T14:56:10.768Z,1.47
2018-12-20T15:01:13.891Z,1.93
2018-12-20T15:06:16.937Z,5.43
2018-12-20T15:11:19.964Z,1.23
2018-12-20T15:16:23.027Z,3.37
2018-12-20T15:21:26.109Z,6.80
2018-12-20T15:26:29.121Z,1.93
2018-12-20T15:31:32.109Z,1.33
2018-12-20T15:36:35.169Z,2.93
2018-12-20T15:41:38.417Z,1.20
2018-12-20T15:46:41.586Z,3.40
2018-12-20T15:51:51.357Z,3.10
2018-12-20T15:56:54.383Z,3.03
2018-12-20T16:01:57.355Z,1.27
2018-12-20T16:07:00.331Z,1.13
2018-12-20T16:12:03.291Z,1.60
2018-12-20T16:17:06.245Z,1.63
2018-12-20T16:22:09.392Z,1.40
2018-12-20T16:27:12.490Z,2.50
2018-12-20T16:32:15.449Z,7.47
2018-12-20T16:37:18.383Z,1.30
2018-12-20T16:42:21.335Z,3.07
2018-12-20T16:47:24.405Z,1.63
2018-12-20T16:52:27.648Z,3.80
2018-12-20T16:57:32.786Z,1.73
2018-12-20T17:02:35.849Z,6.93
2018-12-20T17:07:38.984Z,3.17
2018-12-20T17:12:42.167Z,4.40
2018-12-20T17:17:45.198Z,1.73
2018-12-20T17:22:48.156Z,3.90
2018-12-20T17:33:15.568Z,2.20
2018-12-20T17:38:18.521Z,3.03
2018-12-20T17:43:22.626Z,2.70
2018-12-20T17:48:29.387Z,3.53
2018-12-20T17:53:30.652Z,3.50
2018-12-20T17:58:33.666Z,4.60
2018-12-20T18:03:36.638Z,3.17
2018-12-20T18:08:39.692Z,2.70
2018-12-20T18:13:42.709Z,3.73
2018-12-20T18:18:45.700Z,2.70
2018-12-20T18:23:48.649Z,4.00
2018-12-20T18:28:51.720Z,5.90
2018-12-20T18:33:54.748Z,2.90
2018-12-20T18:38:57.764Z,2.87
2018-12-20T18:44:00.885Z,5.70
2018-12-20T18:49:04.001Z,2.43
2018-12-20T18:59:22.204Z,2.67
2018-12-20T19:04:25.301Z,3.57
2018-12-20T19:09:28.262Z,3.83
2018-12-20T19:14:32.050Z,4.73
2018-12-20T19:19:35.521Z,4.40
2018-12-20T19:24:38.526Z,4.07
2018-12-20T19:29:41.556Z,6.43
2018-12-20T19:34:44.713Z,5.83
2018-12-20T19:39:51.289Z,4.03
2018-12-20T19:44:56.592Z,5.77
2018-12-20T19:50:04.766Z,5.27
2018-12-20T19:55:05.193Z,3.50
2018-12-20T20:00:13.037Z,4.37
2018-12-20T20:10:38.666Z,4.10
2018-12-20T20:15:41.725Z,4.50
2018-12-20T20:20:44.778Z,7.47
2018-12-20T20:25:47.811Z,14.90
2018-12-20T20:30:50.830Z,13.40
2018-12-20T20:35:53.863Z,8.57
2018-12-20T20:40:57.287Z,9.63
2018-12-20T20:46:00.564Z,9.10
2018-12-20T20:51:03.838Z,10.40
2018-12-20T21:01:29.067Z,9.80
2018-12-20T21:06:33.050Z,10.57
2018-12-20T21:17:08.717Z,11.43
2018-12-20T21:22:11.785Z,7.87
2018-12-20T21:27:14.768Z,12.27
2018-12-20T21:32:18.723Z,7.63
2018-12-20T21:37:21.933Z,9.30
2018-12-20T21:42:24.896Z,9.50
2018-12-20T21:47:28.113Z,12.93
2018-12-20T21:52:31.075Z,8.50
2018-12-20T21:57:34.257Z,9.00
2018-12-20T22:02:37.539Z,12.07
2018-12-20T22:07:40.610Z,7.23
2018-12-20T22:18:08.439Z,12.80
2018-12-20T22:23:18.089Z,16.93
2018-12-20T22:28:21.044Z,10.23
2018-12-20T22:33:24.007Z,6.13
2018-12-20T22:38:26.989Z,9.70
2018-12-20T22:43:29.984Z,8.80
2018-12-20T22:48:32.941Z,9.47
2018-12-20T22:53:35.894Z,6.47
2018-12-20T22:58:38.832Z,9.00
2018-12-20T23:03:41.805Z,8.40
2018-12-20T23:08:44.775Z,9.90
2018-12-20T23:13:47.758Z,10.83
2018-12-20T23:18:52.397Z,15.53
2018-12-20T23:23:55.564Z,14.03
2018-12-20T23:28:58.610Z,16.20
2018-12-20T23:39:22.039Z,12.10
2018-12-20T23:49:43.805Z,14.13
2018-12-20T23:54:47.363Z,13.87
2018-12-20T23:59:50.804Z,14.97
